SHU5652 UHHH-UIII
Flight info
| Callsign | SHU5652 |
|---|---|
| Flight time | N/A |
| Altitude | 38000 |
| Route | IVADA A946 TORMA N992 GU G229 NIKTO P873 KU W173 NERKA W268 RINOP A45 USONA |
| Aircraft | A319/M-SDE3FGHIRWY/LB1 |
Departure
| Time | 2026-05-08 17:49 |
|---|---|
| Airport | Khabarovsk Novy Airport (UHHH) |
Arrival
| Time | N/A |
|---|---|
| Airport | Irkutsk International Airport (UIII) |
| Time | Latitude | Longitude | Altitude | Speed | Heading |
|---|---|---|---|---|---|
| 2026-05-08 17:10 | 48.52668 | 135.17388 | 272 ft | 0 kts | 312° |
| 2026-05-08 17:37 | 48.52668 | 135.17389 | 244 ft | 1 kts | 312° |
| 2026-05-08 17:37 | 48.52654 | 135.17412 | 244 ft | 3 kts | 312° |
| 2026-05-08 17:38 | 48.52640 | 135.17436 | 244 ft | 3 kts | 312° |
| 2026-05-08 17:38 | 48.52626 | 135.17461 | 244 ft | 3 kts | 300° |
| 2026-05-08 17:38 | 48.52618 | 135.17489 | 244 ft | 3 kts | 271° |
| 2026-05-08 17:38 | 48.52622 | 135.17515 | 244 ft | 2 kts | 223° |
| 2026-05-08 17:39 | 48.52623 | 135.17517 | 244 ft | 0 kts | 222° |
| 2026-05-08 17:45 | 48.52620 | 135.17513 | 244 ft | 2 kts | 222° |
| 2026-05-08 17:45 | 48.52609 | 135.17498 | 244 ft | 2 kts | 222° |
| 2026-05-08 17:46 | 48.52599 | 135.17484 | 244 ft | 2 kts | 222° |
| 2026-05-08 17:46 | 48.52586 | 135.17467 | 244 ft | 4 kts | 222° |
| 2026-05-08 17:46 | 48.52551 | 135.17418 | 245 ft | 8 kts | 220° |
| 2026-05-08 17:46 | 48.52506 | 135.17427 | 245 ft | 7 kts | 137° |
| 2026-05-08 17:47 | 48.52471 | 135.17483 | 245 ft | 7 kts | 133° |
| 2026-05-08 17:47 | 48.52435 | 135.17540 | 245 ft | 8 kts | 133° |
| 2026-05-08 17:47 | 48.52399 | 135.17600 | 246 ft | 8 kts | 131° |
| 2026-05-08 17:47 | 48.52375 | 135.17641 | 246 ft | 8 kts | 131° |
| 2026-05-08 17:48 | 48.52326 | 135.17724 | 246 ft | 8 kts | 132° |
| 2026-05-08 17:48 | 48.52288 | 135.17788 | 246 ft | 8 kts | 132° |
| 2026-05-08 17:48 | 48.52279 | 135.17855 | 246 ft | 8 kts | 46° |
| 2026-05-08 17:48 | 48.52372 | 135.17980 | 243 ft | 44 kts | 41° |
| 2026-05-08 17:49 | 48.52788 | 135.18539 | 247 ft | 112 kts | 42° |
| 2026-05-08 17:49 | 48.53510 | 135.19527 | 248 ft | 166 kts | 42° |
| 2026-05-08 17:49 | 48.54402 | 135.20747 | 719 ft | 172 kts | 41° |
| 2026-05-08 17:49 | 48.55454 | 135.21596 | 1294 ft | 178 kts | 6° |
| 2026-05-08 17:50 | 48.56625 | 135.21029 | 1819 ft | 184 kts | 322° |
| 2026-05-08 17:50 | 48.57553 | 135.19716 | 2499 ft | 182 kts | 314° |
| 2026-05-08 17:50 | 48.58422 | 135.18336 | 3149 ft | 181 kts | 314° |
| 2026-05-08 17:50 | 48.59289 | 135.16946 | 3691 ft | 188 kts | 314° |
| 2026-05-08 17:51 | 48.60249 | 135.15442 | 3938 ft | 212 kts | 315° |
| 2026-05-08 17:51 | 48.61353 | 135.13779 | 4259 ft | 236 kts | 316° |
| 2026-05-08 17:51 | 48.62585 | 135.11967 | 4764 ft | 255 kts | 317° |
| 2026-05-08 17:51 | 48.63887 | 135.10085 | 5570 ft | 262 kts | 318° |
| 2026-05-08 17:52 | 48.65222 | 135.08178 | 6423 ft | 266 kts | 319° |
| 2026-05-08 17:52 | 48.66587 | 135.06248 | 7267 ft | 270 kts | 319° |
| 2026-05-08 17:52 | 48.69372 | 135.02319 | 9013 ft | 277 kts | 319° |
| 2026-05-08 17:53 | 48.70789 | 135.00319 | 9876 ft | 281 kts | 319° |
| 2026-05-08 17:53 | 48.72236 | 134.98279 | 10370 ft | 298 kts | 319° |
| 2026-05-08 17:53 | 48.73288 | 134.96798 | 10544 ft | 314 kts | 319° |
| 2026-05-08 17:53 | 48.75449 | 134.93749 | 11377 ft | 325 kts | 319° |
| 2026-05-08 17:54 | 48.77109 | 134.91399 | 12185 ft | 328 kts | 319° |
| 2026-05-08 17:54 | 48.78778 | 134.89033 | 13005 ft | 330 kts | 319° |
| 2026-05-08 17:54 | 48.80464 | 134.86643 | 13793 ft | 333 kts | 319° |
| 2026-05-08 17:54 | 48.82163 | 134.84234 | 14476 ft | 336 kts | 319° |
| 2026-05-08 17:55 | 48.83880 | 134.81799 | 15143 ft | 340 kts | 320° |
| 2026-05-08 17:55 | 48.85051 | 134.80138 | 15592 ft | 342 kts | 320° |
| 2026-05-08 17:55 | 48.87368 | 134.76844 | 16479 ft | 347 kts | 320° |
| 2026-05-08 17:55 | 48.88540 | 134.75178 | 16912 ft | 349 kts | 320° |
| 2026-05-08 17:56 | 48.90324 | 134.72640 | 17560 ft | 353 kts | 320° |
| 2026-05-08 17:56 | 48.92124 | 134.70073 | 18190 ft | 357 kts | 320° |
| 2026-05-08 17:56 | 48.93934 | 134.67481 | 18814 ft | 358 kts | 320° |
| 2026-05-08 17:56 | 48.95753 | 134.64872 | 19384 ft | 361 kts | 320° |
| 2026-05-08 17:57 | 48.97589 | 134.62238 | 19959 ft | 364 kts | 320° |
| 2026-05-08 17:57 | 48.99444 | 134.59582 | 20527 ft | 368 kts | 320° |
| 2026-05-08 17:57 | 49.01318 | 134.56896 | 21093 ft | 371 kts | 319° |
| 2026-05-08 17:57 | 49.03204 | 134.54191 | 21652 ft | 375 kts | 319° |
| 2026-05-08 17:58 | 49.05117 | 134.51450 | 22220 ft | 378 kts | 319° |
| 2026-05-08 17:58 | 49.07041 | 134.48688 | 22778 ft | 382 kts | 319° |
| 2026-05-08 17:58 | 49.08832 | 134.45658 | 23310 ft | 389 kts | 309° |
| 2026-05-08 17:58 | 49.10349 | 134.42212 | 23800 ft | 392 kts | 306° |
| 2026-05-08 17:59 | 49.11842 | 134.38726 | 24309 ft | 393 kts | 306° |
| 2026-05-08 17:59 | 49.13347 | 134.35227 | 24784 ft | 395 kts | 306° |
| 2026-05-08 17:59 | 49.14859 | 134.31715 | 25229 ft | 397 kts | 306° |
| 2026-05-08 17:59 | 49.16387 | 134.28169 | 25670 ft | 400 kts | 306° |
| 2026-05-08 18:00 | 49.17919 | 134.24610 | 26097 ft | 402 kts | 306° |
| 2026-05-08 18:00 | 49.20993 | 134.17464 | 26940 ft | 407 kts | 306° |
| 2026-05-08 18:00 | 49.22551 | 134.13828 | 27359 ft | 410 kts | 306° |
| 2026-05-08 18:01 | 49.24114 | 134.10168 | 27792 ft | 412 kts | 306° |
| 2026-05-08 18:01 | 49.25683 | 134.06489 | 28245 ft | 413 kts | 306° |
| 2026-05-08 18:01 | 49.27258 | 134.02791 | 28672 ft | 415 kts | 306° |
| 2026-05-08 18:01 | 49.28842 | 133.99076 | 29075 ft | 418 kts | 306° |
| 2026-05-08 18:02 | 49.30437 | 133.95333 | 29456 ft | 420 kts | 305° |
| 2026-05-08 18:02 | 49.32036 | 133.91571 | 29835 ft | 423 kts | 305° |
| 2026-05-08 18:02 | 49.33644 | 133.87773 | 30153 ft | 425 kts | 305° |
| 2026-05-08 18:02 | 49.35257 | 133.83957 | 30449 ft | 428 kts | 305° |
| 2026-05-08 18:03 | 49.36882 | 133.80114 | 30740 ft | 430 kts | 305° |
| 2026-05-08 18:03 | 49.38512 | 133.76249 | 31037 ft | 432 kts | 305° |
| 2026-05-08 18:03 | 49.40138 | 133.72380 | 31435 ft | 431 kts | 305° |
| 2026-05-08 18:03 | 49.41763 | 133.68512 | 31830 ft | 431 kts | 305° |
| 2026-05-08 18:04 | 49.43385 | 133.64644 | 32222 ft | 431 kts | 304° |
| 2026-05-08 18:04 | 49.45005 | 133.60782 | 32600 ft | 430 kts | 304° |
| 2026-05-08 18:04 | 49.46639 | 133.56900 | 32830 ft | 434 kts | 305° |
| 2026-05-08 18:04 | 49.48289 | 133.52983 | 33054 ft | 437 kts | 304° |
| 2026-05-08 18:05 | 49.49921 | 133.49105 | 33360 ft | 438 kts | 304° |
| 2026-05-08 18:05 | 49.51573 | 133.45169 | 33712 ft | 438 kts | 304° |
| 2026-05-08 18:05 | 49.53226 | 133.41221 | 33868 ft | 438 kts | 305° |
| 2026-05-08 18:05 | 49.54896 | 133.37229 | 33894 ft | 438 kts | 305° |
| 2026-05-08 18:06 | 49.58161 | 133.29388 | 33890 ft | 437 kts | 304° |
| 2026-05-08 18:06 | 49.61445 | 133.21485 | 33890 ft | 437 kts | 304° |
| 2026-05-08 18:07 | 49.64721 | 133.13580 | 33881 ft | 437 kts | 304° |
| 2026-05-08 18:07 | 49.67997 | 133.05659 | 33890 ft | 437 kts | 304° |
| 2026-05-08 18:08 | 49.71263 | 132.97734 | 33894 ft | 437 kts | 304° |
| 2026-05-08 18:08 | 49.74512 | 132.89803 | 33894 ft | 437 kts | 304° |
| 2026-05-08 18:09 | 49.77759 | 132.81851 | 33893 ft | 436 kts | 304° |
| 2026-05-08 18:09 | 49.81004 | 132.73917 | 33881 ft | 436 kts | 304° |
| 2026-05-08 18:10 | 49.84225 | 132.66023 | 33884 ft | 436 kts | 304° |
| 2026-05-08 18:10 | 49.87450 | 132.58065 | 33894 ft | 436 kts | 304° |
| 2026-05-08 18:11 | 49.90657 | 132.50084 | 33894 ft | 436 kts | 304° |
| 2026-05-08 18:11 | 49.93870 | 132.42112 | 33902 ft | 436 kts | 304° |
| 2026-05-08 18:12 | 49.97090 | 132.34126 | 33889 ft | 436 kts | 305° |
| 2026-05-08 18:12 | 50.00299 | 132.26138 | 33897 ft | 436 kts | 304° |
| 2026-05-08 18:13 | 50.03607 | 132.18262 | 33900 ft | 433 kts | 311° |
| 2026-05-08 18:13 | 50.07705 | 132.11450 | 33898 ft | 431 kts | 316° |
| 2026-05-08 18:14 | 50.11850 | 132.04781 | 33880 ft | 431 kts | 317° |
| 2026-05-08 18:14 | 50.16016 | 131.98045 | 33885 ft | 431 kts | 316° |
| 2026-05-08 18:15 | 50.20171 | 131.91292 | 33900 ft | 431 kts | 317° |
| 2026-05-08 18:15 | 50.24329 | 131.84531 | 33903 ft | 431 kts | 317° |
| 2026-05-08 18:16 | 50.28474 | 131.77774 | 33906 ft | 431 kts | 316° |
| 2026-05-08 18:16 | 50.32618 | 131.70989 | 33900 ft | 430 kts | 317° |
| 2026-05-08 18:17 | 50.36754 | 131.64216 | 33900 ft | 430 kts | 317° |
| 2026-05-08 18:17 | 50.40856 | 131.57463 | 33905 ft | 430 kts | 317° |
| 2026-05-08 18:18 | 50.45001 | 131.50603 | 33902 ft | 430 kts | 317° |
| 2026-05-08 18:18 | 50.49090 | 131.43826 | 33903 ft | 430 kts | 317° |
| 2026-05-08 18:19 | 50.53210 | 131.37018 | 33907 ft | 430 kts | 317° |
| 2026-05-08 18:19 | 50.57325 | 131.30184 | 33913 ft | 430 kts | 317° |
| 2026-05-08 18:20 | 50.61429 | 131.23331 | 33914 ft | 430 kts | 317° |
| 2026-05-08 18:20 | 50.65537 | 131.16460 | 33891 ft | 430 kts | 317° |
| 2026-05-08 18:21 | 50.69635 | 131.09579 | 33892 ft | 430 kts | 317° |
| 2026-05-08 18:21 | 50.73730 | 131.02680 | 33896 ft | 431 kts | 317° |
| 2026-05-08 18:22 | 50.77805 | 130.95816 | 33893 ft | 431 kts | 317° |
| 2026-05-08 18:22 | 50.81904 | 130.88888 | 33893 ft | 431 kts | 317° |
| 2026-05-08 18:23 | 50.86006 | 130.81939 | 33872 ft | 432 kts | 317° |
| 2026-05-08 18:23 | 50.90107 | 130.74961 | 33880 ft | 433 kts | 317° |
| 2026-05-08 18:24 | 50.94199 | 130.67954 | 33881 ft | 433 kts | 317° |
| 2026-05-08 18:24 | 50.98301 | 130.60944 | 33883 ft | 433 kts | 317° |
| 2026-05-08 18:25 | 51.02400 | 130.53920 | 33887 ft | 434 kts | 317° |
| 2026-05-08 18:25 | 51.06492 | 130.46873 | 33892 ft | 434 kts | 317° |
| 2026-05-08 18:26 | 51.10586 | 130.39810 | 33896 ft | 434 kts | 317° |
| 2026-05-08 18:26 | 51.14668 | 130.32741 | 33897 ft | 434 kts | 317° |
| 2026-05-08 18:27 | 51.18061 | 130.26852 | 33900 ft | 434 kts | 317° |
| 2026-05-08 18:27 | 51.22802 | 130.18592 | 33875 ft | 435 kts | 317° |
| 2026-05-08 18:28 | 51.26887 | 130.11471 | 33873 ft | 435 kts | 317° |
| 2026-05-08 18:28 | 51.30966 | 130.04317 | 33878 ft | 435 kts | 317° |
| 2026-05-08 18:29 | 51.35034 | 129.97142 | 33880 ft | 435 kts | 316° |
| 2026-05-08 18:29 | 51.39056 | 129.89875 | 33861 ft | 436 kts | 316° |
| 2026-05-08 18:30 | 51.43054 | 129.82562 | 33864 ft | 436 kts | 316° |
| 2026-05-08 18:30 | 51.47054 | 129.75256 | 33862 ft | 436 kts | 316° |
| 2026-05-08 18:31 | 51.51058 | 129.67947 | 33866 ft | 436 kts | 316° |
| 2026-05-08 18:31 | 51.55061 | 129.60634 | 33842 ft | 436 kts | 316° |
| 2026-05-08 18:32 | 51.59054 | 129.53293 | 33851 ft | 436 kts | 316° |
| 2026-05-08 18:32 | 51.63043 | 129.45925 | 33854 ft | 436 kts | 316° |
| 2026-05-08 18:33 | 51.67037 | 129.38564 | 33857 ft | 436 kts | 316° |
| 2026-05-08 18:33 | 51.71024 | 129.31180 | 33860 ft | 437 kts | 316° |
| 2026-05-08 18:34 | 51.75002 | 129.23759 | 33845 ft | 437 kts | 315° |
| 2026-05-08 18:34 | 51.78987 | 129.16336 | 33843 ft | 437 kts | 315° |
| 2026-05-08 18:35 | 51.82965 | 129.08902 | 33852 ft | 437 kts | 315° |
| 2026-05-08 18:35 | 51.86931 | 129.01436 | 33853 ft | 438 kts | 315° |
| 2026-05-08 18:36 | 51.88886 | 128.97748 | 33856 ft | 438 kts | 315° |